x

Cal Poly Pier, Ca (cpxc1) Weather Station

5:58pm - Sat 18th Aug 2018 All times are PDT. -7 hours from GMT.

  • Wind
    5mph, 6mph gusts
  • Air Temp 67°f
  • Sea Pressure 1016mb
  • Cal Poly Pier, Ca
  • Cal Poly Pier, Ca

More Historic Weather Station data

Upgrade to MSW Pro to gain access to the past 30 days of data for over 8000 Wavebouys and Weather Stations around the globe.

Join

Comparision Forecast

View Surf forecast
   
Sat 08/18 5:58pm 5 6 mph 1016mb 67f
5:48pm 5 6 mph 1016mb 67f
5:38pm 5 7 mph 1016mb 67f
5:26pm 6 6 mph 1016mb 66f
5:16pm 3 5 mph 1016mb 67f
5:06pm 5 5 mph 1016.2mb 67f
4:56pm 3 5 mph 1016.2mb 67f
4:46pm 3 5 mph 1016.3mb 68f
4:26pm 1 3 mph 1016.5mb 68f
4:16pm 5 6 mph 1016.7mb 67f
4:06pm 1 3 mph 1016.8mb 68f
3:56pm 1 3 mph 1017mb 69f
3:46pm 2 5 mph 1017.2mb 67f
3:44pm 3 6 mph 1017.2mb 67f
3:42pm 5 7 mph 1017.2mb 67f
3:40pm 3 6 mph 1017.2mb 67f
3:38pm 5 8 mph 1017.2mb 66f
3:36pm 6 8 mph 1017.4mb 66f
3:34pm 9 11 mph 1017.4mb 66f
3:32pm 10 13 mph 1017.4mb 66f
3:30pm 10 14 mph 1017.4mb 66f
3:28pm 11 15 mph 1017.4mb 66f
3:26pm 10 13 mph 1017.4mb 66f
3:24pm 10 14 mph 1017.5mb 66f
3:22pm 8 11 mph 1017.5mb 66f
3:20pm 9 11 mph 1017.7mb 66f
3:18pm 10 15 mph 1017.7mb 66f
3:16pm 11 15 mph 1017.7mb 65f
3:14pm 11 15 mph 1017.7mb 66f
3:12pm 8 11 mph 1017.7mb 66f
3:10pm 10 13 mph 1017.7mb 66f
3:08pm 10 13 mph 1017.7mb 66f
3:06pm 10 13 mph 1017.7mb 66f
3:04pm 8 13 mph 1017.7mb 67f
3:02pm 5 8 mph 1017.9mb 68f
3:00pm 5 7 mph 1017.9mb 67f
2:58pm 5 8 mph 1017.9mb 67f
2:56pm 3 5 mph 1017.9mb 67f
2:54pm 6 9 mph 1017.9mb 67f
2:52pm 6 8 mph 1017.9mb 66f
2:50pm 6 9 mph 1017.9mb 66f
2:48pm 7 8 mph 1017.9mb 66f
2:46pm 8 13 mph 1017.9mb 65f
2:44pm 10 14 mph 1017.9mb 65f
2:42pm 13 15 mph 1017.9mb 64f
2:40pm 14 16 mph 1018.1mb 64f
2:38pm 14 17 mph 1018.1mb 64f
2:36pm 14 16 mph 1018.1mb 64f
2:34pm 15 17 mph 1018.1mb 64f
2:32pm 14 17 mph 1018.2mb 65f
2:30pm 13 15 mph 1018.2mb 65f
2:28pm 11 17 mph 1018.2mb 65f
2:26pm 11 14 mph 1018.4mb 66f
2:24pm 5 13 mph 1018.4mb 66f
2:22pm 5 14 mph 1018.6mb 66f
2:20pm 7 10 mph 1018.6mb 66f
2:18pm 10 13 mph 1018.6mb 66f
2:16pm 7 10 mph 1018.4mb 66f
2:14pm 6 10 mph 1018.4mb 66f
2:12pm 8 10 mph 1018.4mb 66f
2:10pm 7 10 mph 1018.4mb 66f
2:08pm 7 9 mph 1018.4mb 66f
2:06pm 6 8 mph 1018.6mb 66f
2:04pm 3 8 mph 1018.6mb 66f
2:02pm 7 8 mph 1018.6mb 65f
2:00pm 8 10 mph 1018.6mb 65f
1:58pm 9 11 mph 1018.6mb 65f
1:56pm 11 14 mph 1018.6mb 64f
1:54pm 11 15 mph 1018.6mb 64f
1:52pm 11 15 mph 1018.6mb 64f
1:50pm 13 15 mph 1018.6mb 64f
1:48pm 11 15 mph 1018.6mb 64f
1:46pm 11 15 mph 1018.7mb 64f
1:44pm 13 15 mph 1018.7mb 64f
1:42pm 10 13 mph 1018.9mb 64f
1:40pm 8 11 mph 1018.9mb 64f
1:38pm 9 11 mph 1018.9mb 65f
1:36pm 8 10 mph 1018.9mb 64f
1:34pm 5 9 mph 1018.9mb 65f
1:32pm 5 6 mph 1018.9mb 64f
1:30pm 9 11 mph 1018.9mb 64f
1:28pm 8 10 mph 1018.9mb 64f
1:26pm 9 13 mph 1018.9mb 64f
1:24pm 8 11 mph 1018.9mb 64f
1:22pm 7 11 mph 1019.1mb 64f
1:20pm 8 14 mph 1019.1mb 63f
1:18pm 7 9 mph 1019.1mb 63f
1:16pm 8 11 mph 1019.1mb 62f
1:14pm 9 11 mph 1019.1mb 62f
1:12pm 10 11 mph 1019.1mb 62f
1:10pm 10 14 mph 1019.1mb 62f
1:08pm 11 14 mph 1019.3mb 62f
1:06pm 9 11 mph 1019.3mb 62f
1:04pm 10 14 mph 1019.3mb 62f
1:02pm 10 11 mph 1019.3mb 62f
1:00pm 10 13 mph 1019.4mb 62f
12:52pm 8 11 mph 1019.6mb 62f
12:50pm 10 11 mph 1019.6mb 62f
12:48pm 10 14 mph 1019.4mb 61f
12:46pm 10 13 mph 1019.4mb 61f
12:44pm 11 14 mph 1019.6mb 61f
12:42pm 11 14 mph 1019.6mb 61f
12:40pm 10 13 mph 1019.6mb 61f
12:38pm 13 15 mph 1019.6mb 61f
12:36pm 11 14 mph 1019.6mb 61f
12:34pm 11 14 mph 1019.4mb 61f
12:32pm 11 14 mph 1019.6mb 61f
12:30pm 11 14 mph 1019.6mb 61f
12:28pm 11 15 mph 1019.4mb 61f
12:26pm 11 14 mph 1019.6mb 60f
12:24pm 11 14 mph 1019.4mb 60f
12:22pm 11 14 mph 1019.4mb 60f
12:20pm 11 14 mph 1019.4mb 60f
12:18pm 11 14 mph 1019.4mb 60f
12:16pm 13 14 mph 1019.4mb 60f
12:14pm 13 14 mph 1019.4mb 60f
12:12pm 11 14 mph 1019.6mb 60f
12:10pm 11 14 mph 1019.6mb 60f
12:08pm 11 14 mph 1019.6mb 60f
12:06pm 11 14 mph 1019.6mb 60f
12:04pm 11 13 mph 1019.6mb 60f
12:02pm 10 11 mph 1019.6mb 60f
12:00pm 10 13 mph 1019.8mb 60f
11:58am 10 13 mph 1019.8mb 60f
11:56am 10 14 mph 1019.8mb 60f
11:54am 10 13 mph 1019.8mb 60f
11:52am 10 11 mph 1019.8mb 60f
11:50am 10 11 mph 1019.8mb 60f
11:48am 9 13 mph 1019.8mb 60f
11:46am 9 11 mph 1019.8mb 60f
11:44am 10 11 mph 1019.8mb 60f
11:42am 9 11 mph 1019.8mb 60f
11:40am 10 11 mph 1019.8mb 60f
11:38am 9 11 mph 1019.8mb 60f
11:36am 9 10 mph 1019.8mb 60f
11:34am 8 10 mph 1019.8mb 61f
11:32am 8 10 mph 1019.8mb 61f
11:30am 7 9 mph 1019.8mb 61f
11:28am 7 10 mph 1019.8mb 61f
11:26am 6 8 mph 1019.8mb 61f
11:24am 7 8 mph 1019.8mb 61f
11:22am 7 8 mph 1019.8mb 61f
11:20am 6 8 mph 1019.8mb 61f
11:18am 6 8 mph 1019.8mb 61f
11:16am 5 7 mph 1019.8mb 62f
11:14am 5 6 mph 1019.8mb 62f
11:12am 5 6 mph 1019.6mb 61f
11:10am 3 5 mph 1019.6mb 61f
11:08am 3 6 mph 1019.6mb 61f
11:06am 5 6 mph 1019.6mb 61f
11:04am 5 6 mph 1019.6mb 61f
11:02am 5 6 mph 1019.6mb 61f
11:00am 5 6 mph 1019.6mb 61f
10:58am 5 7 mph 1019.6mb 61f
10:56am 3 6 mph 1019.6mb 61f
10:54am 5 6 mph 1019.6mb 61f
10:52am 5 7 mph 1019.6mb 61f
10:50am 5 6 mph 1019.6mb 61f
10:48am 5 6 mph 1019.6mb 61f
10:46am 5 6 mph 1019.6mb 61f
10:44am 5 6 mph 1019.6mb 61f
10:42am 5 6 mph 1019.6mb 61f
10:40am 5 6 mph 1019.6mb 62f
10:38am 3 6 mph 1019.6mb 62f
10:36am 2 5 mph 1019.6mb 62f
10:34am 3 5 mph 1019.6mb 62f
10:32am 2 5 mph 1019.6mb 62f
10:30am 1 2 mph 1019.6mb 62f
10:28am 2 5 mph 1019.6mb 62f
10:26am 2 3 mph 1019.6mb 62f
10:24am 2 3 mph 1019.6mb 62f
10:22am 2 3 mph 1019.6mb 62f
10:20am 2 3 mph 1019.4mb 62f
10:18am 2 3 mph 1019.4mb 62f
10:16am 2 3 mph 1019.6mb 62f
10:14am 2 5 mph 1019.6mb 62f
10:12am 3 5 mph 1019.4mb 62f
10:10am 3 5 mph 1019.4mb 62f
10:08am 1 3 mph 1019.4mb 62f
10:06am  -  1 mph 1019.4mb 62f
10:04am  -  1 mph 1019.4mb 62f
10:02am  -  2 mph 1019.4mb 62f
10:00am  -  2 mph 1019.4mb 62f
9:58am  -  2 mph 1019.4mb 62f
9:56am  -  1 mph 1019.6mb 62f
9:54am  -  1 mph 1019.6mb 62f
9:52am  -  1 mph 1019.6mb 62f
9:48am  -  1 mph 1019.6mb 62f
9:46am 1 2 mph 1019.6mb 62f
9:44am  -  2 mph 1019.6mb 62f
9:42am  -  1 mph 1019.6mb 62f
9:40am  -  2 mph 1019.6mb 62f
9:38am 1 2 mph 1019.6mb 61f
9:36am 2 5 mph 1019.6mb 62f
9:34am 2 3 mph 1019.4mb 62f
9:32am 3 5 mph 1019.4mb 62f
9:30am 3 6 mph 1019.4mb 62f
9:28am 2 5 mph 1019.4mb 62f
9:26am  -  2 mph 1019.4mb 62f
9:24am 1 2 mph 1019.4mb 62f
9:22am  -  1 mph 1019.4mb 62f
9:20am 1 2 mph 1019.4mb 62f
9:18am  -  2 mph 1019.4mb 62f
9:16am  -  1 mph 1019.3mb 62f
9:14am  -  1 mph 1019.3mb 62f
9:12am  -  1 mph 1019.3mb 62f
9:10am  -  1 mph 1019.3mb 62f
9:08am  -  1 mph 1019.3mb 62f
9:06am  -  1 mph 1019.3mb 62f
9:04am  -  1 mph 1019.3mb 62f
9:02am  -  1 mph 1019.3mb 62f
9:00am  -  1 mph 1019.3mb 61f
8:58am  -  1 mph 1019.3mb 61f
8:48am 1 2 mph 1019.3mb 61f
8:46am 1 2 mph 1019.3mb 61f
8:44am  -  1 mph 1019.3mb 61f
8:42am  -  2 mph 1019.3mb 60f
8:40am 2 2 mph 1019.3mb 60f
8:38am 3 6 mph 1019.3mb 60f
8:36am 2 5 mph 1019.3mb 60f
8:34am 5 5 mph 1019.3mb 60f
8:32am 3 5 mph 1019.1mb 60f
8:30am 5 5 mph 1019.1mb 60f
8:28am 5 6 mph 1019.1mb 60f
8:26am 2 3 mph 1019.1mb 60f
8:24am 2 2 mph 1019.1mb 60f
8:22am 2 3 mph 1019.1mb 60f
8:20am 2 3 mph 1019.1mb 60f
8:18am 1 2 mph 1019.1mb 60f
8:16am 2 3 mph 1019.1mb 60f
8:14am 3 5 mph 1019.1mb 60f
8:12am 3 5 mph 1019.1mb 60f
8:10am 3 5 mph 1018.9mb 61f
8:08am 3 5 mph 1018.9mb 61f
8:06am 2 3 mph 1018.9mb 60f
8:04am 1 3 mph 1018.9mb 60f
8:02am 2 3 mph 1018.9mb 60f
8:00am  -  2 mph 1018.9mb 60f
7:58am 1 2 mph 1018.9mb 60f
7:56am 2 5 mph 1018.9mb 60f
7:54am  -  2 mph 1018.9mb 60f
7:52am 2 5 mph 1018.9mb 60f
7:50am 2 3 mph 1018.9mb 60f
7:48am 2 3 mph 1018.9mb 60f
7:46am 2 3 mph 1018.9mb 60f
7:44am 3 5 mph 1018.9mb 60f
7:42am 2 5 mph 1018.9mb 60f
7:40am 2 5 mph 1018.9mb 60f
7:38am 2 5 mph 1018.9mb 60f
7:36am 2 5 mph 1018.7mb 60f
7:34am 2 3 mph 1018.7mb 60f
7:32am 2 3 mph 1018.7mb 60f
7:30am 2 5 mph 1018.7mb 60f
7:28am 3 5 mph 1018.7mb 60f
7:26am 2 5 mph 1018.7mb 60f
7:24am 2 3 mph 1018.7mb 60f
7:22am 3 5 mph 1018.6mb 60f
7:20am 3 5 mph 1018.6mb 60f
7:18am 3 5 mph 1018.6mb 60f
7:16am 5 6 mph 1018.6mb 60f
7:14am 5 6 mph 1018.6mb 60f
7:12am 5 6 mph 1018.6mb 60f
7:10am 3 5 mph 1018.4mb 60f
7:08am 3 5 mph 1018.4mb 60f
7:06am 3 3 mph 1018.4mb 60f
7:04am 3 5 mph 1018.4mb 60f
7:02am 3 5 mph 1018.4mb 60f
7:00am 3 5 mph 1018.4mb 60f
6:58am 3 5 mph 1018.4mb 60f
6:56am 3 5 mph 1018.4mb 60f
6:54am 3 5 mph 1018.4mb 60f
6:52am 2 3 mph 1018.4mb 60f
6:50am 1 2 mph 1018.4mb 60f
6:48am 2 5 mph 1018.4mb 60f
6:46am 2 5 mph 1018.2mb 60f
6:44am 1 3 mph 1018.2mb 60f
6:42am  -  2 mph 1018.2mb 60f
6:40am  -  2 mph 1018.2mb 60f
6:38am  -  1 mph 1018.2mb 60f
6:36am  -  1 mph 1018.2mb 60f
6:34am  -  1 mph 1018.2mb 60f
6:32am  -  1 mph 1018.2mb 60f
6:30am  -  1 mph 1018.2mb 60f
6:28am  -  1 mph 1018.2mb 60f
6:26am  -  1 mph 1018.4mb 60f
6:24am  -  1 mph 1018.4mb 60f
6:22am  -  2 mph 1018.4mb 60f
6:20am 1 2 mph 1018.2mb 60f
6:18am 2 2 mph 1018.2mb 60f
6:16am 2 3 mph 1018.2mb 60f
6:14am 2 2 mph 1018.2mb 60f
6:12am 2 2 mph 1018.2mb 60f
6:10am 2 2 mph 1018.2mb 59f
6:08am 1 3 mph 1018.2mb 59f
6:06am 1 2 mph 1018.2mb 59f
6:04am 2 3 mph 1018.1mb 59f
6:02am 2 5 mph 1018.1mb 59f
6:00am 2 5 mph 1018.1mb 59f
5:54am 5 6 mph 1018.1mb 59f
5:44am 2 5 mph 1017.9mb 59f
5:42am 2 5 mph 1017.9mb 59f
5:40am 3 6 mph 1017.9mb 59f
5:38am 3 6 mph 1017.9mb 59f
5:36am 2 5 mph 1017.9mb 59f
5:34am 3 5 mph 1017.9mb 59f
5:32am 5 6 mph 1017.9mb 59f
5:30am 5 6 mph 1017.9mb 59f
5:28am 5 6 mph 1017.9mb 59f
5:26am 6 7 mph 1017.7mb 59f
5:24am 6 8 mph 1017.7mb 59f
5:22am 6 8 mph 1017.7mb 59f
5:20am 6 7 mph 1017.7mb 59f
5:18am 6 8 mph 1017.7mb 59f
5:16am 6 8 mph 1017.7mb 59f
5:14am 6 7 mph 1017.5mb 59f
5:12am 6 8 mph 1017.5mb 59f
5:10am 6 8 mph 1017.5mb 59f
5:08am 6 8 mph 1017.5mb 59f
5:06am 6 7 mph 1017.5mb 59f
5:04am 6 7 mph 1017.5mb 59f
5:02am 7 8 mph 1017.5mb 59f
5:00am 7 8 mph 1017.5mb 59f
4:58am 6 8 mph 1017.5mb 59f
4:56am 7 8 mph 1017.5mb 59f
4:54am 7 8 mph 1017.5mb 59f
4:52am 7 8 mph 1017.5mb 59f
4:50am 7 8 mph 1017.5mb 59f
4:48am 7 8 mph 1017.5mb 59f
4:46am 7 8 mph 1017.5mb 59f
4:44am 7 8 mph 1017.4mb 59f
4:42am 6 8 mph 1017.5mb 59f
4:40am 6 8 mph 1017.5mb 59f
4:38am 7 8 mph 1017.5mb 59f
4:36am 7 8 mph 1017.5mb 59f
4:34am 7 8 mph 1017.5mb 59f
4:32am 7 8 mph 1017.5mb 59f
4:30am 6 8 mph 1017.5mb 59f
4:28am 6 8 mph 1017.5mb 59f
4:26am 6 8 mph 1017.5mb 59f
4:24am 6 8 mph 1017.5mb 59f
4:22am 7 8 mph 1017.5mb 59f
4:20am 7 8 mph 1017.5mb 59f
4:18am 7 8 mph 1017.5mb 59f
4:16am 6 8 mph 1017.7mb 59f
4:14am 6 7 mph 1017.7mb 59f
4:12am 6 7 mph 1017.7mb 59f
4:10am 6 7 mph 1017.7mb 59f
4:08am 5 6 mph 1017.7mb 59f
4:06am 5 6 mph 1017.7mb 59f
4:04am 3 6 mph 1017.7mb 59f
4:02am 5 6 mph 1017.7mb 59f
4:00am 5 6 mph 1017.7mb 59f
3:58am 5 6 mph 1017.7mb 59f
3:56am 5 6 mph 1017.9mb 59f
3:54am 5 6 mph 1017.9mb 59f
3:52am 6 7 mph 1017.9mb 59f
3:50am 5 6 mph 1017.9mb 59f
3:48am 5 6 mph 1017.9mb 59f
3:46am 6 8 mph 1017.9mb 59f
3:44am 5 7 mph 1017.9mb 60f
3:42am 3 7 mph 1017.9mb 60f
3:40am 6 7 mph 1017.9mb 60f
3:38am 6 7 mph 1017.9mb 60f
3:36am 5 8 mph 1017.9mb 60f
3:34am 5 6 mph 1017.9mb 60f
3:32am 5 7 mph 1017.9mb 60f
3:30am 5 6 mph 1017.9mb 60f
3:28am 3 5 mph 1017.9mb 60f
3:26am 2 5 mph 1017.9mb 60f
3:24am 3 6 mph 1018.1mb 60f
3:22am 5 6 mph 1018.1mb 59f
3:20am 3 6 mph 1018.1mb 59f
3:18am 5 5 mph 1018.1mb 59f
3:16am 5 5 mph 1018.1mb 60f
3:14am 5 6 mph 1018.1mb 60f
3:12am 5 6 mph 1018.1mb 60f
3:10am 5 6 mph 1018.1mb 60f
3:08am 5 5 mph 1018.1mb 60f
3:06am 5 6 mph 1018.1mb 60f
3:04am 5 6 mph 1017.9mb 60f
3:02am 5 6 mph 1017.9mb 60f
3:00am 5 6 mph 1017.9mb 60f
2:58am 6 6 mph 1017.9mb 60f
2:56am 5 7 mph 1017.9mb 60f
2:54am 6 7 mph 1017.9mb 60f
2:52am 5 6 mph 1017.9mb 60f
2:50am 5 6 mph 1017.9mb 60f
2:48am 6 6 mph 1017.9mb 60f
2:46am 6 6 mph 1017.9mb 60f
2:44am 6 6 mph 1017.9mb 60f
2:42am 5 7 mph 1017.9mb 60f
2:40am 5 7 mph 1017.9mb 60f
2:38am 6 8 mph 1018.1mb 60f
2:36am 6 7 mph 1018.1mb 60f
2:34am 6 8 mph 1018.1mb 60f
2:32am 7 8 mph 1018.1mb 60f
2:30am 7 8 mph 1018.1mb 60f
2:28am 6 8 mph 1018.1mb 60f
2:26am 6 8 mph 1018.1mb 60f
2:24am 6 7 mph 1018.1mb 60f
2:22am 6 6 mph 1018.2mb 60f
2:20am 5 6 mph 1018.2mb 60f
2:18am 5 6 mph 1018.2mb 60f
2:16am 5 6 mph 1018.2mb 60f
2:14am 5 6 mph 1018.2mb 60f
2:12am 5 5 mph 1018.2mb 60f
2:10am 5 5 mph 1018.2mb 60f
2:08am 5 5 mph 1018.2mb 60f
2:06am 3 5 mph 1018.2mb 60f
2:04am 5 5 mph 1018.2mb 60f
2:02am 3 5 mph 1018.2mb 60f
2:00am 2 5 mph 1018.4mb 60f
1:58am 2 3 mph 1018.4mb 60f
1:56am 3 5 mph 1018.4mb 60f
1:54am 3 5 mph 1018.4mb 60f
1:52am 1 3 mph 1018.4mb 60f
1:50am  -  2 mph 1018.4mb 60f
1:48am  -  2 mph 1018.4mb 60f
1:46am 1 2 mph 1018.4mb 61f
1:44am 1 2 mph 1018.4mb 61f
1:42am 2 2 mph 1018.4mb 61f
1:40am 2 3 mph 1018.4mb 61f
1:38am 2 2 mph 1018.4mb 61f
1:36am 2 2 mph 1018.4mb 61f
1:34am 2 2 mph 1018.4mb 60f
1:32am 2 3 mph 1018.4mb 60f
1:30am 3 5 mph 1018.4mb 60f
1:28am 3 5 mph 1018.4mb 60f
1:26am 2 5 mph 1018.4mb 60f
1:24am 2 5 mph 1018.4mb 60f
1:22am 2 5 mph 1018.4mb 60f
1:20am 2 5 mph 1018.4mb 60f
1:18am 3 5 mph 1018.4mb 60f
1:16am 3 5 mph 1018.4mb 60f
1:14am 3 5 mph 1018.4mb 61f
1:12am 2 5 mph 1018.4mb 61f
1:10am 1 3 mph 1018.4mb 61f
1:08am  -  2 mph 1018.4mb 61f
1:06am  -  1 mph 1018.4mb 61f
1:04am  -  2 mph 1018.4mb 61f
1:02am 1 2 mph 1018.6mb 61f
1:00am 1 2 mph 1018.6mb 61f
12:58am 1 2 mph 1018.6mb 61f
12:56am 2 3 mph 1018.6mb 61f
12:54am 2 3 mph 1018.6mb 61f
12:52am 1 2 mph 1018.6mb 61f
12:50am 2 2 mph 1018.6mb 61f
12:48am 2 3 mph 1018.6mb 61f
12:46am 2 3 mph 1018.6mb 61f
12:44am  -  2 mph 1018.6mb 61f
12:42am 2 2 mph 1018.6mb 61f
12:40am 2 3 mph 1018.6mb 61f
12:38am 2 5 mph 1018.6mb 61f
12:36am  -  2 mph 1018.6mb 61f
12:34am 2 5 mph 1018.6mb 61f
12:32am 2 3 mph 1018.6mb 61f
12:30am 1 2 mph 1018.4mb 61f
12:28am  -  1 mph 1018.4mb 61f
12:26am  -  1 mph 1018.4mb 61f
12:24am  -  2 mph 1018.6mb 61f
12:22am 1 2 mph 1018.4mb 61f
12:20am 1 2 mph 1018.4mb 61f
12:18am  -  2 mph 1018.4mb 61f
12:16am  -  1 mph 1018.4mb 61f
12:14am  -  1 mph 1018.4mb 61f
12:12am  -  1 mph 1018.4mb 61f
12:10am  -  1 mph 1018.4mb 61f
12:08am  -  2 mph 1018.4mb 61f
12:06am  -  2 mph 1018.4mb 61f
12:04am 2 2 mph 1018.4mb 62f
12:02am 2 3 mph 1018.4mb 62f
12:00am 1 2 mph 1018.6mb 61f
Fri 08/17 11:58pm 2 2 mph 1018.6mb 62f
11:56pm 2 2 mph 1018.6mb 62f
11:54pm 2 2 mph 1018.4mb 62f
11:52pm 2 2 mph 1018.4mb 62f
11:50pm 1 2 mph 1018.4mb 62f
11:48pm 1 2 mph 1018.4mb 62f
11:46pm 2 2 mph 1018.4mb 62f
11:44pm 1 2 mph 1018.4mb 62f
11:42pm 2 3 mph 1018.4mb 62f
11:40pm 2 3 mph 1018.4mb 62f
11:38pm 1 2 mph 1018.4mb 62f
11:36pm 2 3 mph 1018.4mb 62f
11:34pm 2 2 mph 1018.4mb 62f
11:32pm 2 5 mph 1018.4mb 62f
11:30pm 2 3 mph 1018.4mb 62f
11:28pm 2 5 mph 1018.4mb 62f
11:26pm 3 3 mph 1018.4mb 62f
11:24pm 3 5 mph 1018.4mb 62f
11:22pm 3 5 mph 1018.4mb 62f
11:20pm 3 5 mph 1018.4mb 62f
11:18pm 3 5 mph 1018.4mb 62f
11:16pm 2 5 mph 1018.4mb 62f
11:14pm 2 3 mph 1018.4mb 62f
11:12pm 3 5 mph 1018.4mb 62f
11:10pm 5 6 mph 1018.4mb 62f
11:08pm 5 5 mph 1018.4mb 62f
11:06pm 5 6 mph 1018.4mb 62f
11:04pm 3 5 mph 1018.4mb 62f
11:02pm 3 5 mph 1018.4mb 62f
11:00pm 3 5 mph 1018.4mb 62f
10:58pm 5 6 mph 1018.4mb 62f
10:48pm 3 6 mph 1018.4mb 62f
10:46pm 5 6 mph 1018.4mb 62f
10:44pm 5 5 mph 1018.4mb 62f
10:42pm 5 6 mph 1018.4mb 62f
10:40pm 5 6 mph 1018.4mb 62f
10:38pm 5 6 mph 1018.4mb 62f
10:36pm 5 6 mph 1018.4mb 62f
10:34pm 5 6 mph 1018.4mb 62f
10:32pm 5 6 mph 1018.6mb 62f
10:30pm 5 6 mph 1018.6mb 62f
10:28pm 5 6 mph 1018.6mb 62f
10:26pm 5 6 mph 1018.6mb 62f
10:24pm 5 6 mph 1018.6mb 62f
10:22pm 5 6 mph 1018.6mb 62f
10:20pm 5 6 mph 1018.6mb 62f
10:18pm 6 6 mph 1018.6mb 62f
10:16pm 5 6 mph 1018.6mb 62f
10:14pm 6 6 mph 1018.6mb 62f
10:12pm 6 7 mph 1018.6mb 62f
10:10pm 6 7 mph 1018.6mb 62f
10:08pm 5 7 mph 1018.6mb 62f
10:06pm 6 6 mph 1018.6mb 62f
10:04pm 5 6 mph 1018.6mb 62f
10:02pm 5 6 mph 1018.6mb 62f
10:00pm 5 6 mph 1018.6mb 62f
9:36pm 6 8 mph 1018.4mb 62f
9:26pm 7 8 mph 1018.4mb 62f
9:16pm 8 10 mph 1018.4mb 62f
9:14pm 8 10 mph 1018.2mb 62f
9:12pm 9 11 mph 1018.2mb 62f
9:10pm 9 10 mph 1018.2mb 62f
9:08pm 8 10 mph 1018.2mb 62f
9:06pm 8 10 mph 1018.2mb 62f
9:04pm 8 10 mph 1018.2mb 62f
9:02pm 8 10 mph 1018.1mb 62f
9:00pm 8 9 mph 1018.1mb 62f
8:58pm 8 10 mph 1018.1mb 62f
8:56pm 8 10 mph 1018.1mb 62f
8:54pm 8 10 mph 1018.1mb 62f
8:52pm 8 9 mph 1017.9mb 62f
8:50pm 8 9 mph 1017.9mb 63f
8:48pm 8 9 mph 1017.9mb 62f
8:46pm 8 9 mph 1017.9mb 62f
8:44pm 8 10 mph 1017.9mb 62f
8:42pm 8 9 mph 1017.9mb 62f
8:40pm 8 9 mph 1017.9mb 62f
8:38pm 9 10 mph 1017.9mb 62f
8:36pm 9 10 mph 1017.9mb 62f
8:34pm 9 10 mph 1017.9mb 62f
8:32pm 9 10 mph 1017.7mb 62f
8:30pm 9 10 mph 1017.7mb 62f
8:28pm 9 10 mph 1017.7mb 62f
8:26pm 9 10 mph 1017.7mb 62f
8:24pm 9 10 mph 1017.7mb 62f
8:22pm 9 10 mph 1017.7mb 62f
8:20pm 9 10 mph 1017.7mb 63f
8:18pm 9 11 mph 1017.7mb 63f
8:16pm 10 11 mph 1017.7mb 63f
8:14pm 10 11 mph 1017.7mb 62f
8:12pm 9 10 mph 1017.7mb 63f
8:10pm 10 10 mph 1017.7mb 62f
8:08pm 10 11 mph 1017.7mb 62f
8:06pm 10 11 mph 1017.7mb 62f
8:04pm 10 11 mph 1017.7mb 62f
8:02pm 10 11 mph 1017.7mb 62f
8:00pm 11 13 mph 1017.7mb 62f
7:58pm 10 11 mph 1017.7mb 63f
7:56pm 9 11 mph 1017.7mb 63f
7:54pm 9 10 mph 1017.7mb 62f
7:52pm 10 11 mph 1017.7mb 62f
7:50pm 10 11 mph 1017.7mb 62f
7:48pm 10 11 mph 1017.7mb 63f
7:46pm 10 11 mph 1017.5mb 63f
7:44pm 10 11 mph 1017.5mb 63f
7:42pm 10 11 mph 1017.5mb 63f
7:40pm 10 11 mph 1017.5mb 63f
7:38pm 9 11 mph 1017.5mb 63f
7:36pm 9 10 mph 1017.5mb 63f
7:34pm 9 10 mph 1017.5mb 63f
7:32pm 8 9 mph 1017.5mb 63f
7:30pm 8 10 mph 1017.5mb 63f
7:28pm 8 9 mph 1017.5mb 63f
7:26pm 8 9 mph 1017.5mb 63f
7:24pm 8 9 mph 1017.4mb 63f
7:22pm 7 8 mph 1017.5mb 63f
7:20pm 8 9 mph 1017.5mb 63f
7:18pm 8 10 mph 1017.4mb 63f
7:16pm 8 10 mph 1017.4mb 63f
7:14pm 9 11 mph 1017.4mb 64f
7:12pm 8 11 mph 1017.4mb 63f
7:10pm 7 9 mph 1017.4mb 64f
7:08pm 7 10 mph 1017.4mb 64f
7:06pm 7 8 mph 1017.4mb 64f
7:04pm 7 9 mph 1017.4mb 64f
7:02pm 6 8 mph 1017.4mb 64f
7:00pm 7 8 mph 1017.4mb 64f
6:54pm 6 8 mph 1017.4mb 64f
6:52pm 7 9 mph 1017.4mb 64f
6:50pm 7 9 mph 1017.4mb 64f
6:48pm 7 8 mph 1017.4mb 64f
6:46pm 6 8 mph 1017.4mb 64f
6:44pm 6 8 mph 1017.4mb 64f
6:42pm 6 7 mph 1017.4mb 65f
6:40pm 6 8 mph 1017.4mb 64f
6:38pm 6 8 mph 1017.4mb 64f
6:36pm 6 8 mph 1017.4mb 64f
6:34pm 5 6 mph 1017.4mb 65f
6:32pm 6 8 mph 1017.5mb 64f
6:30pm 6 8 mph 1017.5mb 64f
6:28pm 5 7 mph 1017.5mb 65f
6:26pm 3 6 mph 1017.5mb 65f
6:24pm 3 5 mph 1017.5mb 65f
6:22pm 3 5 mph 1017.5mb 65f
6:20pm 3 6 mph 1017.5mb 65f
6:18pm 5 6 mph 1017.5mb 65f
6:16pm 6 7 mph 1017.5mb 65f
6:14pm 5 6 mph 1017.5mb 65f
6:12pm 3 6 mph 1017.5mb 65f
6:10pm 3 6 mph 1017.5mb 65f
6:08pm 5 6 mph 1017.5mb 65f
6:06pm 2 5 mph 1017.5mb 66f
6:04pm 1 3 mph 1017.5mb 66f
6:02pm 2 3 mph 1017.5mb 66f
6:00pm 1 2 mph 1017.5mb 66f
5:54pm 2 3 mph 1017.5mb 66f
5:42pm 2 5 mph 1017.5mb 67f
5:40pm 2 5 mph 1017.5mb 68f
5:38pm 2 6 mph 1017.5mb 68f
5:36pm 2 7 mph 1017.5mb 68f
5:34pm 1 3 mph 1017.5mb 68f
5:32pm 2 5 mph 1017.5mb 69f
5:30pm 2 5 mph 1017.5mb 69f
5:28pm  -  2 mph 1017.5mb 69f
5:26pm  -  1 mph 1017.5mb 69f
5:24pm  -  1 mph 1017.5mb 68f
5:22pm  -  2 mph 1017.5mb 67f
5:20pm 2 5 mph 1017.5mb 66f
5:18pm 5 7 mph 1017.5mb 66f
5:16pm 5 8 mph 1017.5mb 66f
5:14pm 7 10 mph 1017.5mb 66f
5:12pm 8 10 mph 1017.5mb 65f
5:10pm 9 11 mph 1017.5mb 65f
5:08pm 10 11 mph 1017.5mb 65f
5:06pm 9 13 mph 1017.5mb 65f
5:04pm 9 11 mph 1017.5mb 65f
5:02pm 10 13 mph 1017.5mb 65f
5:00pm 10 11 mph 1017.7mb 65f
4:58pm 10 14 mph 1017.7mb 65f
4:56pm 10 14 mph 1017.7mb 65f
4:54pm 10 14 mph 1017.7mb 65f
4:52pm 9 11 mph 1017.7mb 65f
4:50pm 11 15 mph 1017.7mb 66f
4:48pm 11 14 mph 1017.7mb 66f
4:46pm 11 14 mph 1017.7mb 66f
4:44pm 10 13 mph 1017.7mb 67f
4:42pm 7 10 mph 1017.7mb 68f
4:40pm 6 8 mph 1017.7mb 69f
4:38pm 6 9 mph 1017.7mb 69f
4:36pm 3 10 mph 1017.7mb 70f
4:34pm 2 2 mph 1017.7mb 71f
4:32pm 2 3 mph 1017.7mb 72f
4:30pm  -  3 mph 1017.7mb 72f
4:28pm 1 2 mph 1017.7mb 72f
4:26pm  -  2 mph 1017.7mb 72f
4:24pm 1 2 mph 1017.7mb 72f
4:22pm 1 2 mph 1017.7mb 72f
4:20pm  -  1 mph 1017.7mb 72f
4:18pm  -  1 mph 1017.7mb 72f
4:16pm  -  2 mph 1017.7mb 71f
4:14pm  -  1 mph 1017.5mb 71f
4:12pm  -  2 mph 1017.7mb 70f
4:10pm 2 5 mph 1017.7mb 70f
4:08pm 2 3 mph 1017.7mb 70f
4:06pm 2 5 mph 1017.7mb 70f
4:04pm 1 3 mph 1017.7mb 69f
4:02pm 1 3 mph 1017.7mb 69f
4:00pm 3 6 mph 1017.7mb 68f
3:50pm 7 10 mph 1017.9mb 68f
3:48pm 9 11 mph 1018.1mb 67f
3:46pm 8 10 mph 1018.1mb 68f
3:44pm 9 10 mph 1018.1mb 68f
3:42pm 3 8 mph 1018.1mb 69f
3:40pm 7 11 mph 1018.1mb 68f
3:38pm 6 11 mph 1018.1mb 69f
3:36pm 6 8 mph 1018.1mb 69f
3:34pm 6 8 mph 1018.1mb 69f
3:32pm 1 2 mph 1018.1mb 70f
3:30pm  -  2 mph 1018.1mb 70f
3:28pm 2 2 mph 1018.1mb 70f
3:26pm 2 3 mph 1018.1mb 69f
3:24pm 2 5 mph 1018.1mb 69f
3:22pm 1 5 mph 1018.1mb 69f
3:20pm 3 5 mph 1018.2mb 68f
3:18pm 7 11 mph 1018.2mb 68f
3:16pm 6 8 mph 1018.1mb 68f
3:14pm 7 8 mph 1018.2mb 68f
3:12pm 8 11 mph 1018.2mb 68f
3:10pm 8 10 mph 1018.1mb 69f
3:08pm 5 10 mph 1018.1mb 70f
3:06pm 1 3 mph 1018.1mb 70f
3:04pm 2 3 mph 1018.1mb 69f
3:02pm 5 8 mph 1018.1mb 68f
3:00pm 6 11 mph 1018.1mb 68f
2:58pm 2 5 mph 1018.1mb 70f
2:56pm 3 6 mph 1018.2mb 70f
2:54pm 2 6 mph 1018.2mb 70f
2:52pm  -  2 mph 1018.2mb 69f
2:50pm 5 9 mph 1018.2mb 69f
2:48pm 2 5 mph 1018.1mb 69f
2:46pm 1 5 mph 1018.2mb 69f
2:44pm 2 6 mph 1018.2mb 69f
2:42pm 2 6 mph 1018.2mb 68f
2:40pm 8 10 mph 1018.2mb 67f
2:38pm 8 10 mph 1018.2mb 67f
2:36pm 9 11 mph 1018.2mb 67f
2:34pm 9 11 mph 1018.2mb 66f
2:32pm 10 14 mph 1018.2mb 66f
2:30pm 10 13 mph 1018.2mb 66f
2:28pm 11 14 mph 1018.2mb 66f
2:26pm 11 14 mph 1018.4mb 66f
2:24pm 11 14 mph 1018.4mb 66f
2:22pm 11 13 mph 1018.2mb 66f
2:20pm 10 13 mph 1018.4mb 66f
2:18pm 10 14 mph 1018.4mb 67f
2:16pm 9 13 mph 1018.4mb 67f
2:14pm 9 11 mph 1018.4mb 67f
2:12pm 7 11 mph 1018.6mb 67f
2:10pm 8 10 mph 1018.6mb 68f
2:08pm 5 8 mph 1018.6mb 68f
2:06pm 3 6 mph 1018.6mb 68f
2:04pm 6 8 mph 1018.6mb 68f
2:02pm 5 8 mph 1018.6mb 68f
2:00pm 3 6 mph 1018.6mb 68f
1:58pm 5 8 mph 1018.6mb 68f
1:56pm 8 10 mph 1018.6mb 67f
1:54pm 7 10 mph 1018.6mb 67f
1:52pm 9 11 mph 1018.6mb 67f
1:50pm 7 10 mph 1018.6mb 67f
1:48pm 8 11 mph 1018.6mb 67f
1:46pm 9 11 mph 1018.6mb 67f
1:44pm 10 11 mph 1018.6mb 67f
1:42pm 10 11 mph 1018.6mb 67f
1:40pm 10 13 mph 1018.6mb 67f
1:38pm 9 14 mph 1018.6mb 67f
1:36pm 9 11 mph 1018.6mb 67f
1:34pm 9 13 mph 1018.6mb 67f
1:32pm 8 10 mph 1018.6mb 67f
1:30pm 8 11 mph 1018.7mb 67f
1:28pm 10 13 mph 1018.7mb 67f
1:26pm 10 14 mph 1018.6mb 67f
1:24pm 8 11 mph 1018.7mb 67f
1:22pm 6 9 mph 1018.7mb 68f
1:20pm 5 7 mph 1018.7mb 69f
1:18pm 5 7 mph 1018.7mb 68f
1:16pm 5 7 mph 1018.7mb 68f
1:14pm 7 10 mph 1018.7mb 68f
1:12pm 5 7 mph 1018.7mb 68f
1:10pm 6 7 mph 1018.7mb 68f
1:08pm 6 9 mph 1018.7mb 68f
1:06pm 9 10 mph 1018.7mb 67f
1:04pm 9 10 mph 1018.7mb 67f
1:02pm 6 9 mph 1018.7mb 68f
1:00pm 6 8 mph 1018.7mb 68f
12:58pm 3 5 mph 1018.7mb 68f
12:56pm 5 6 mph 1018.7mb 68f
12:54pm 5 7 mph 1018.7mb 68f
12:52pm 7 10 mph 1018.7mb 67f
12:50pm 8 10 mph 1018.7mb 67f
12:48pm 8 11 mph 1018.7mb 67f
12:46pm 6 9 mph 1018.7mb 67f
12:44pm 7 8 mph 1018.7mb 67f
12:42pm 6 7 mph 1018.7mb 67f
12:40pm 7 10 mph 1018.7mb 67f
12:38pm 7 10 mph 1018.7mb 67f
12:36pm 8 11 mph 1018.9mb 67f
12:34pm 8 10 mph 1018.9mb 67f
12:32pm 8 9 mph 1018.7mb 67f
12:30pm 8 11 mph 1018.9mb 66f
12:28pm 8 10 mph 1018.7mb 66f
12:26pm 7 10 mph 1018.9mb 67f
12:24pm 7 11 mph 1018.7mb 66f
12:22pm 8 13 mph 1018.9mb 66f
12:20pm 8 11 mph 1018.9mb 66f
12:18pm 10 13 mph 1018.9mb 65f
12:16pm 9 13 mph 1018.9mb 66f
12:14pm 10 11 mph 1018.7mb 65f
12:12pm 10 11 mph 1018.9mb 65f
12:10pm 11 14 mph 1018.9mb 65f
12:08pm 10 14 mph 1018.7mb 65f
12:06pm 10 13 mph 1018.9mb 65f
12:04pm 10 11 mph 1018.9mb 65f
12:02pm 10 11 mph 1018.9mb 65f
12:00pm 10 14 mph 1018.9mb 65f
11:56am 10 13 mph 1018.9mb 64f
11:46am 10 13 mph 1019.1mb 64f
11:44am 10 13 mph 1019.1mb 64f
11:42am 10 11 mph 1019.1mb 64f
11:40am 9 11 mph 1019.1mb 64f
11:38am 9 11 mph 1019.1mb 64f
11:36am 10 14 mph 1019.1mb 64f
11:34am 11 13 mph 1018.9mb 63f
11:32am 11 15 mph 1018.9mb 63f
11:30am 10 13 mph 1019.1mb 63f
11:28am 9 13 mph 1019.1mb 63f
11:26am 10 13 mph 1018.9mb 63f
11:24am 10 13 mph 1019.1mb 62f
11:22am 11 13 mph 1018.9mb 62f
11:20am 10 11 mph 1018.9mb 62f
11:18am 10 11 mph 1019.1mb 62f
11:16am 10 11 mph 1019.1mb 62f
11:14am 9 10 mph 1019.1mb 63f
11:12am 8 10 mph 1019.1mb 63f
11:10am 8 10 mph 1019.1mb 63f
11:08am 7 10 mph 1019.1mb 63f
11:06am 8 10 mph 1019.1mb 62f
11:04am 8 10 mph 1019.1mb 62f
11:02am 8 10 mph 1019.1mb 62f
11:00am 8 9 mph 1019.1mb 63f
10:56am 7 8 mph 1019.1mb 63f
10:46am 6 8 mph 1019.1mb 63f
10:44am 6 8 mph 1019.1mb 63f
10:42am 6 8 mph 1019.1mb 63f
10:40am 5 7 mph 1019.1mb 63f
10:38am 3 5 mph 1019.1mb 63f
10:36am 3 5 mph 1019.1mb 63f
10:34am 2 5 mph 1019.1mb 63f
10:32am 5 6 mph 1019.1mb 63f
10:30am 5 6 mph 1019.1mb 63f
10:28am 5 7 mph 1019.1mb 63f
10:26am 3 6 mph 1019.1mb 63f
10:24am 5 6 mph 1019.3mb 63f
10:22am 5 7 mph 1019.3mb 63f
10:20am 5 7 mph 1019.3mb 63f
10:18am 6 8 mph 1019.3mb 63f
10:16am 5 7 mph 1019.3mb 64f
10:14am 5 7 mph 1019.1mb 64f
10:12am 6 8 mph 1019.1mb 64f
10:10am 5 7 mph 1019.1mb 65f
10:08am 5 6 mph 1019.1mb 65f
10:06am 3 6 mph 1019.1mb 65f
10:04am 3 6 mph 1019.1mb 65f
10:02am 3 6 mph 1019.1mb 65f
10:00am 2 5 mph 1019.1mb 65f
9:58am 2 6 mph 1019.1mb 65f
9:56am 3 5 mph 1019.1mb 65f
9:54am 2 5 mph 1019.1mb 64f
9:52am 3 5 mph 1019.1mb 64f
9:50am 2 5 mph 1019.1mb 64f
9:48am 3 5 mph 1019.1mb 64f
9:46am 3 5 mph 1019.1mb 64f
9:44am 3 5 mph 1019.1mb 64f
9:42am 3 5 mph 1019.1mb 64f
9:40am 3 5 mph 1019.1mb 64f
9:38am 5 6 mph 1019.1mb 64f
9:36am 3 6 mph 1019.1mb 64f
9:34am 5 6 mph 1019.1mb 64f
9:32am 3 5 mph 1018.9mb 64f
9:30am 3 5 mph 1018.9mb 64f
9:28am 3 5 mph 1019.1mb 64f
9:26am 3 3 mph 1019.1mb 64f
9:24am 2 2 mph 1019.1mb 64f
9:22am 2 3 mph 1019.1mb 64f
9:20am 2 3 mph 1019.1mb 64f
9:18am 2 3 mph 1019.1mb 64f
9:16am 2 3 mph 1018.9mb 64f
9:14am 1 2 mph 1018.9mb 64f
9:12am 2 2 mph 1018.9mb 64f
9:10am 2 2 mph 1019.1mb 64f
9:08am 2 2 mph 1019.1mb 64f
9:06am 3 5 mph 1019.1mb 63f
9:04am 2 2 mph 1019.1mb 63f
9:02am 2 3 mph 1019.1mb 63f
9:00am 2 2 mph 1019.1mb 63f
8:58am 2 2 mph 1019.1mb 63f
8:56am 2 3 mph 1019.1mb 63f
8:54am 2 3 mph 1019.1mb 63f
8:52am 3 5 mph 1019.1mb 63f
8:50am 2 5 mph 1019.1mb 63f
8:48am 3 5 mph 1019.1mb 63f
8:46am 3 5 mph 1019.1mb 63f
8:44am 3 5 mph 1019.1mb 63f
8:42am 2 5 mph 1019.1mb 63f
8:40am 3 5 mph 1019.1mb 63f
8:38am 3 5 mph 1019.1mb 63f
8:36am 2 5 mph 1019.1mb 63f
8:34am 2 3 mph 1018.9mb 63f
8:32am 2 3 mph 1018.9mb 63f
8:30am 2 3 mph 1018.9mb 62f
8:28am 2 3 mph 1018.9mb 62f
8:26am 2 3 mph 1018.9mb 62f
8:24am 2 3 mph 1018.9mb 62f
8:22am 2 3 mph 1018.9mb 62f
8:20am 3 5 mph 1018.9mb 62f
8:18am 3 5 mph 1018.9mb 62f
8:16am 2 3 mph 1018.9mb 62f
8:14am 3 5 mph 1018.9mb 62f
8:12am 2 2 mph 1018.9mb 62f
8:10am  -  2 mph 1018.9mb 62f
8:08am  -  2 mph 1018.9mb 62f
8:06am  -  1 mph 1018.9mb 62f
8:04am 1 2 mph 1018.9mb 62f
8:02am 1 2 mph 1018.9mb 62f
8:00am 2 3 mph 1018.9mb 61f
7:58am 1 2 mph 1018.9mb 61f
7:56am 1 2 mph 1018.9mb 61f
7:54am 2 2 mph 1018.9mb 61f
7:52am 2 2 mph 1018.9mb 60f
7:50am 2 3 mph 1018.9mb 60f
7:48am 3 5 mph 1018.9mb 60f
7:46am 3 5 mph 1018.7mb 60f
7:44am 3 5 mph 1018.7mb 60f
7:42am 3 5 mph 1018.9mb 60f
7:40am 5 6 mph 1018.9mb 60f
7:38am 5 6 mph 1018.9mb 60f
7:36am 3 5 mph 1018.7mb 60f
7:34am 3 5 mph 1018.7mb 60f
7:32am 3 5 mph 1018.7mb 60f
7:30am 3 5 mph 1018.7mb 60f
7:28am 3 5 mph 1018.7mb 60f
7:26am 3 5 mph 1018.7mb 60f
7:24am 2 5 mph 1018.7mb 60f
7:22am 2 5 mph 1018.7mb 59f
7:20am 3 5 mph 1018.7mb 59f
7:18am 5 6 mph 1018.6mb 59f
7:16am 5 6 mph 1018.6mb 59f
7:14am 5 6 mph 1018.6mb 59f
7:12am 5 6 mph 1018.6mb 59f
7:10am 5 6 mph 1018.6mb 59f
7:08am 5 6 mph 1018.6mb 59f
7:06am 5 6 mph 1018.6mb 59f
7:04am 5 6 mph 1018.6mb 59f
7:02am 5 6 mph 1018.6mb 59f
7:00am 6 7 mph 1018.4mb 59f
6:58am 5 6 mph 1018.4mb 59f
6:56am 6 6 mph 1018.4mb 59f
6:54am 6 7 mph 1018.4mb 59f
6:52am 6 7 mph 1018.2mb 59f
6:50am 5 6 mph 1018.2mb 59f
6:48am 6 8 mph 1018.2mb 59f
6:46am 6 6 mph 1018.2mb 59f
6:44am 5 6 mph 1018.2mb 59f
6:42am 5 6 mph 1018.2mb 59f
6:40am 5 6 mph 1018.1mb 59f
6:38am 3 6 mph 1018.1mb 59f
6:36am 3 6 mph 1018.1mb 59f
6:34am 5 6 mph 1018.1mb 59f
6:32am 5 6 mph 1018.1mb 59f
6:30am 5 6 mph 1018.1mb 59f
6:28am 5 6 mph 1018.1mb 59f
6:26am 6 7 mph 1018.1mb 59f
6:24am 5 6 mph 1018.1mb 59f
6:22am 3 6 mph 1018.1mb 60f
6:20am 2 3 mph 1018.1mb 60f
6:18am 2 3 mph 1018.1mb 60f
6:16am 2 3 mph 1018.1mb 60f
6:14am 2 3 mph 1018.1mb 60f
6:12am 2 3 mph 1018.1mb 60f
6:10am 2 3 mph 1018.1mb 60f
6:08am 2 3 mph 1018.1mb 60f
6:06am 2 3 mph 1018.1mb 60f
6:04am 2 5 mph 1018.1mb 60f
6:02am 3 5 mph 1018.1mb 60f
6:00am 2 5 mph 1018.1mb 60f
5:50am 2 3 mph 1018.1mb 59f
5:40am 2 5 mph 1017.9mb 59f
5:38am 2 5 mph 1017.9mb 59f
5:36am 2 5 mph 1017.9mb 59f
5:34am 3 5 mph 1017.9mb 60f
5:32am 2 3 mph 1017.9mb 60f
5:30am 1 2 mph 1017.9mb 60f
5:28am  -  2 mph 1017.9mb 60f
5:26am  -  1 mph 1017.9mb 60f
5:24am  -  1 mph 1017.9mb 60f
5:22am  -  2 mph 1017.9mb 60f
5:20am 1 2 mph 1017.7mb 60f
5:18am 2 2 mph 1017.7mb 60f
5:16am 2 3 mph 1017.7mb 59f
5:14am 2 5 mph 1017.7mb 59f
5:12am 3 5 mph 1017.7mb 59f
5:10am 3 5 mph 1017.7mb 59f
5:08am 3 5 mph 1017.7mb 59f
5:06am 3 5 mph 1017.7mb 59f
5:04am 5 6 mph 1017.7mb 59f
5:02am 5 6 mph 1017.7mb 59f
5:00am 3 6 mph 1017.7mb 59f
4:58am 5 6 mph 1017.7mb 60f
4:56am 5 6 mph 1017.7mb 60f
4:54am 5 6 mph 1017.7mb 60f
4:52am 5 6 mph 1017.7mb 59f
4:50am 5 6 mph 1017.7mb 59f
4:48am 6 7 mph 1017.5mb 59f
4:46am 3 6 mph 1017.7mb 59f
4:44am 5 6 mph 1017.7mb 60f
4:42am 3 5 mph 1017.7mb 60f
4:40am 3 5 mph 1017.7mb 60f
4:38am 3 5 mph 1017.7mb 60f
4:36am 3 5 mph 1017.7mb 60f